Time;durP1;ratioP1;P1;durP2;ratioP2;P2;SDS_P1;SDS_P2;PMS_P1;PMS_P2;Temp;Humidity;BMP_temperature;BMP_pressure;BME280_temperature;BME280_humidity;BME280_pressure;Samples;Min_cycle;Max_cycle;Signal;HPM_P1;HPM_P2
2022/09/22 00:00:36;;;;;;;4.70;2.40;;;21.80;68.40;;;;;;214870;1297;25389;-51
2022/09/22 00:06:10;;;;;;;5.80;2.50;;;21.80;68.00;;;;;;214409;1297;24000;-49
2022/09/22 00:11:22;;;;;;;7.00;2.80;;;21.80;68.30;;;;;;215063;1299;25402;-50
2022/09/22 00:16:47;;;;;;;9.40;3.00;;;21.80;68.10;;;;;;215197;1300;22660;-50
2022/09/22 00:22:02;;;;;;;6.70;2.80;;;21.80;68.00;;;;;;215226;1296;24340;-50
2022/09/22 00:27:13;;;;;;;;;;;21.70;67.90;;;;;;215013;1296;24091;-48
2022/09/22 00:32:23;;;;;;;5.40;2.70;;;21.70;68.10;;;;;;215095;1296;22572;-49
2022/09/22 00:37:35;;;;;;;6.60;2.60;;;21.70;68.10;;;;;;214882;1296;22595;-49
2022/09/22 00:42:39;;;;;;;6.30;2.50;;;21.70;68.00;;;;;;215195;1297;24265;-52
2022/09/22 00:47:44;;;;;;;6.20;2.00;;;21.70;68.40;;;;;;214869;1299;22649;-48
2022/09/22 00:52:52;;;;;;;6.30;2.80;;;21.70;68.00;;;;;;214975;1296;22631;-50
2022/09/22 00:57:59;;;;;;;5.30;2.20;;;21.70;67.90;;;;;;215118;1297;25348;-53
2022/09/22 01:03:07;;;;;;;4.40;2.30;;;21.70;68.30;;;;;;214871;1296;26696;-51
2022/09/22 01:08:12;;;;;;;6.70;2.30;;;21.70;68.40;;;;;;215044;1296;22622;-47
2022/09/22 01:13:22;;;;;;;4.90;2.40;;;21.70;68.00;;;;;;214847;1297;26788;-49
2022/09/22 01:18:35;;;;;;;4.50;2.20;;;21.70;67.80;;;;;;214676;1297;239851;-50
2022/09/22 01:24:09;;;;;;;5.20;2.80;;;21.70;68.00;;;;;;215477;1299;22588;-50
2022/09/22 01:29:37;;;;;;;4.40;2.40;;;21.70;67.80;;;;;;214836;1297;22592;-52
2022/09/22 01:34:53;;;;;;;4.10;2.30;;;21.70;67.90;;;;;;214961;1296;22588;-48
2022/09/22 01:40:06;;;;;;;4.80;2.10;;;21.60;68.00;;;;;;214768;1297;22588;-51
2022/09/22 01:45:14;;;;;;;5.40;2.30;;;21.70;68.10;;;;;;214977;1297;25303;-50
2022/09/22 01:50:48;;;;;;;4.60;2.50;;;21.70;68.10;;;;;;215167;1297;22568;-50
2022/09/22 01:55:59;;;;;;;4.70;2.10;;;21.70;67.90;;;;;;214919;1299;24350;-51
2022/09/22 02:01:07;;;;;;;5.00;2.40;;;21.70;67.80;;;;;;215088;1296;22557;-49
2022/09/22 02:06:25;;;;;;;4.70;2.40;;;21.70;68.00;;;;;;215060;1297;25374;-50
2022/09/22 02:11:29;;;;;;;5.20;2.30;;;21.70;67.60;;;;;;215236;1296;22617;-50
2022/09/22 02:16:33;;;;;;;6.30;2.30;;;21.60;67.90;;;;;;215086;1296;22615;-49
2022/09/22 02:21:39;;;;;;;3.80;2.10;;;21.60;67.80;;;;;;215413;1297;22566;-51
2022/09/22 02:26:43;;;;;;;4.30;2.10;;;21.60;67.90;;;;;;215071;1299;22588;-50
2022/09/22 02:31:46;;;;;;;4.20;2.60;;;21.60;68.00;;;;;;215250;1299;22566;-51
2022/09/22 02:37:05;;;;;;;3.20;1.80;;;21.60;67.70;;;;;;214668;1299;22668;-53
2022/09/22 02:42:47;;;;;;;8.00;2.30;;;21.60;67.90;;;;;;214765;1298;22662;-48
2022/09/22 02:48:01;;;;;;;3.70;1.90;;;21.60;67.70;;;;;;217778;1296;25378;-51
2022/09/22 02:53:12;;;;;;;3.50;2.00;;;21.60;67.60;;;;;;216337;1297;25418;-51
2022/09/22 02:58:16;;;;;;;3.30;2.00;;;21.60;68.20;;;;;;215334;1299;24346;-52
2022/09/22 03:03:20;;;;;;;3.20;1.70;;;21.60;67.90;;;;;;215076;1297;24271;-49
2022/09/22 03:08:23;;;;;;;4.40;2.30;;;21.60;67.60;;;;;;214966;1297;24932;-49
2022/09/22 03:13:27;;;;;;;5.00;1.70;;;21.60;68.10;;;;;;215159;1297;26676;-48
2022/09/22 03:18:31;;;;;;;4.10;2.30;;;21.60;68.20;;;;;;215030;1299;22564;-50
2022/09/22 03:23:34;;;;;;;3.30;1.80;;;21.60;67.70;;;;;;214949;1296;22566;-51
2022/09/22 03:28:38;;;;;;;4.00;2.00;;;21.60;67.60;;;;;;215008;1297;25280;-47
2022/09/22 03:33:41;;;;;;;4.10;1.80;;;21.60;67.50;;;;;;214798;1297;22588;-52
2022/09/22 03:38:45;;;;;;;3.40;2.10;;;21.50;67.70;;;;;;215067;1297;25287;-51
2022/09/22 03:43:49;;;;;;;4.30;2.10;;;21.60;67.50;;;;;;214881;1296;22595;-50
2022/09/22 03:48:53;;;;;;;5.40;1.90;;;21.50;67.50;;;;;;214926;1297;22590;-50
2022/09/22 03:53:56;;;;;;;3.30;1.70;;;21.50;67.60;;;;;;215038;1296;22576;-47
2022/09/22 03:59:00;;;;;;;3.20;1.80;;;21.50;67.80;;;;;;214994;1296;22593;-48
2022/09/22 04:04:04;;;;;;;5.20;1.90;;;21.60;67.80;;;;;;214772;1298;25286;-50
2022/09/22 04:09:07;;;;;;;4.40;2.20;;;21.50;68.50;;;;;;215040;1296;24373;-54
2022/09/22 04:14:11;;;;;;;4.70;2.10;;;21.50;67.80;;;;;;214895;1299;24353;-47
2022/09/22 04:19:15;;;;;;;3.10;1.80;;;21.50;68.00;;;;;;214804;1299;25245;-48
2022/09/22 04:24:19;;;;;;;5.40;2.10;;;21.50;67.60;;;;;;214919;1297;25293;-52
2022/09/22 04:29:24;;;;;;;3.80;1.90;;;21.50;67.80;;;;;;214957;1299;24333;-52
2022/09/22 04:34:28;;;;;;;3.70;2.10;;;21.50;67.70;;;;;;214852;1297;25544;-49
2022/09/22 04:39:32;;;;;;;6.30;1.80;;;21.50;67.60;;;;;;215174;1296;24064;-52
2022/09/22 04:44:35;;;;;;;3.10;1.60;;;21.50;67.80;;;;;;215306;1296;22592;-48
2022/09/22 04:49:39;;;;;;;3.90;1.80;;;21.50;67.50;;;;;;214930;1299;22597;-47
2022/09/22 04:54:46;;;;;;;3.40;1.80;;;21.50;68.00;;;;;;215173;1296;22690;-47
2022/09/22 04:59:53;;;;;;;3.10;2.00;;;21.50;68.20;;;;;;215264;1297;25411;-49
2022/09/22 05:04:57;;;;;;;4.00;2.00;;;21.50;68.10;;;;;;214887;1297;23993;-52
2022/09/22 05:10:04;;;;;;;5.30;1.70;;;21.50;67.80;;;;;;215120;1296;22564;-49
2022/09/22 05:15:11;;;;;;;3.60;1.70;;;21.50;67.40;;;;;;215055;1296;22599;-46
2022/09/22 05:20:19;;;;;;;5.00;1.90;;;21.50;67.80;;;;;;214938;1297;22581;-50
2022/09/22 05:25:23;;;;;;;3.40;1.70;;;21.40;67.60;;;;;;215073;1299;24355;-51
2022/09/22 05:30:27;;;;;;;3.90;1.70;;;21.50;67.90;;;;;;215029;1297;22569;-53
2022/09/22 05:35:31;;;;;;;8.10;1.80;;;21.50;68.00;;;;;;214918;1296;25296;-50
2022/09/22 05:40:39;;;;;;;3.20;1.80;;;21.50;67.90;;;;;;215046;1296;24191;-52
2022/09/22 05:45:43;;;;;;;5.60;1.80;;;21.50;68.00;;;;;;215009;1296;22632;-51
2022/09/22 05:50:47;;;;;;;5.10;1.60;;;21.50;67.80;;;;;;214728;1297;24499;-48
2022/09/22 05:55:50;;;;;;;4.10;1.90;;;21.60;67.90;;;;;;215250;1296;22697;-50
2022/09/22 06:00:57;;;;;;;4.70;2.00;;;21.60;68.10;;;;;;215231;1296;23881;-50
2022/09/22 06:06:01;;;;;;;5.80;2.20;;;21.70;68.60;;;;;;215145;1299;22588;-50
2022/09/22 06:11:05;;;;;;;5.90;2.10;;;21.60;68.10;;;;;;214880;1296;22688;-49
2022/09/22 06:16:09;;;;;;;19.60;2.80;;;21.70;70.00;;;;;;214982;1299;23517;-52
2022/09/22 06:21:15;;;;;;;9.30;2.80;;;21.80;71.20;;;;;;214750;1299;22691;-49
2022/09/22 06:26:18;;;;;;;12.20;2.20;;;21.90;71.10;;;;;;214856;1297;24427;-50
2022/09/22 06:31:22;;;;;;;11.40;2.50;;;21.90;71.00;;;;;;215012;1299;24263;-49
2022/09/22 06:36:30;;;;;;;17.10;2.50;;;21.90;71.40;;;;;;215207;1296;24315;-50
2022/09/22 06:41:33;;;;;;;9.60;2.60;;;21.90;71.30;;;;;;215137;1296;25452;-49
2022/09/22 06:46:37;;;;;;;8.30;2.10;;;21.90;70.60;;;;;;214964;1298;24375;-46
2022/09/22 06:51:41;;;;;;;18.70;2.10;;;21.90;70.70;;;;;;215372;1296;24501;-55
2022/09/22 06:56:45;;;;;;;8.00;2.40;;;21.90;70.80;;;;;;214928;1296;22650;-50
2022/09/22 07:01:48;;;;;;;9.90;2.40;;;22.00;71.20;;;;;;215030;1296;22598;-50
2022/09/22 07:06:52;;;;;;;8.60;2.40;;;22.00;70.40;;;;;;215021;1299;25277;-53
2022/09/22 07:11:56;;;;;;;8.60;2.50;;;22.00;70.50;;;;;;214633;1299;25666;-49
2022/09/22 07:17:00;;;;;;;12.00;2.70;;;22.00;70.60;;;;;;215004;1299;25331;-51
2022/09/22 07:22:03;;;;;;;8.80;2.30;;;22.10;70.30;;;;;;215015;1297;24474;-50
2022/09/22 07:27:09;;;;;;;5.90;2.40;;;22.20;70.40;;;;;;215175;1296;25529;-51
2022/09/22 07:32:13;;;;;;;8.50;2.50;;;22.20;69.90;;;;;;215083;1299;22686;-49
2022/09/22 07:37:17;;;;;;;4.80;2.30;;;22.10;70.50;;;;;;215087;1296;22552;-52
2022/09/22 07:42:20;;;;;;;7.00;1.90;;;22.20;70.30;;;;;;215190;1296;22560;-54
2022/09/22 07:52:51;;;;;;;6.60;2.30;;;22.30;70.00;;;;;;215098;1297;22756;-52
2022/09/22 07:57:58;;;;;;;9.60;2.40;;;22.30;69.80;;;;;;215292;1296;22756;-50
2022/09/22 08:03:02;;;;;;;9.00;2.30;;;22.40;69.70;;;;;;215283;1299;22565;-50
2022/09/22 08:08:07;;;;;;;3.90;1.70;;;22.40;69.40;;;;;;214798;1299;22570;-51
2022/09/22 08:13:10;;;;;;;9.80;2.00;;;22.40;69.30;;;;;;214993;1299;25561;-49
2022/09/22 08:18:14;;;;;;;10.70;2.50;;;22.40;69.40;;;;;;214733;1299;24010;-51
2022/09/22 08:23:18;;;;;;;5.50;1.80;;;22.50;69.10;;;;;;215053;1299;25476;-51
2022/09/22 08:28:21;;;;;;;5.30;1.80;;;22.50;69.30;;;;;;214947;1299;25618;-49
2022/09/22 08:33:26;;;;;;;5.80;1.90;;;22.50;68.80;;;;;;214831;1296;22569;-50
2022/09/22 08:38:32;;;;;;;5.80;2.30;;;22.50;68.60;;;;;;214842;1296;25590;-48
2022/09/22 08:44:09;;;;;;;5.00;1.80;;;22.60;68.50;;;;;;215007;1296;22570;-49
2022/09/22 08:54:41;;;;;;;8.00;1.70;;;22.60;68.50;;;;;;214944;1296;24547;-49
2022/09/22 08:59:52;;;;;;;7.20;2.10;;;22.70;68.40;;;;;;214949;1296;22769;-48
2022/09/22 09:05:24;;;;;;;5.00;2.70;;;22.70;68.20;;;;;;214953;1299;22589;-52
2022/09/22 09:10:46;;;;;;;4.60;1.60;;;22.70;68.10;;;;;;215092;1296;22658;-48
2022/09/22 09:15:55;;;;;;;4.70;2.10;;;22.80;68.00;;;;;;214708;1299;25480;-51
2022/09/22 09:21:02;;;;;;;6.00;1.80;;;22.70;67.90;;;;;;214774;1299;23967;-52
2022/09/22 09:26:08;;;;;;;14.60;2.70;;;22.80;69.10;;;;;;215141;1296;23964;-49
2022/09/22 09:31:38;;;;;;;10.60;2.10;;;22.80;70.20;;;;;;215331;1296;23107;-51
2022/09/22 09:36:44;;;;;;;4.00;2.00;;;22.90;69.00;;;;;;215021;1299;25344;-49
2022/09/22 09:41:49;;;;;;;4.70;2.00;;;22.90;69.20;;;;;;215349;1296;22826;-49
2022/09/22 09:47:05;;;;;;;4.20;2.10;;;23.00;69.80;;;;;;214857;1296;25596;-49
2022/09/22 09:52:12;;;;;;;3.90;1.50;;;22.90;68.60;;;;;;214584;1299;25370;-48
2022/09/22 09:57:18;;;;;;;6.80;1.80;;;23.00;68.70;;;;;;215195;1297;22635;-50
2022/09/22 10:02:27;;;;;;;3.50;1.60;;;23.00;69.10;;;;;;214739;1296;23044;-50
2022/09/22 10:07:43;;;;;;;5.00;2.00;;;23.10;68.60;;;;;;215073;1297;22595;-51
2022/09/22 10:12:55;;;;;;;5.30;1.90;;;23.10;68.70;;;;;;215044;1296;22574;-51
2022/09/22 10:18:31;;;;;;;6.70;2.00;;;23.20;68.40;;;;;;214901;1296;25368;-52
2022/09/22 10:23:40;;;;;;;5.60;2.20;;;23.30;68.60;;;;;;214916;1299;24250;-50
2022/09/22 10:29:04;;;;;;;4.10;1.80;;;23.20;68.20;;;;;;214855;1297;24428;-51
2022/09/22 10:34:38;;;;;;;5.20;1.70;;;23.30;68.30;;;;;;215012;1297;23005;-51
2022/09/22 10:39:49;;;;;;;3.10;1.80;;;23.30;68.30;;;;;;214819;1299;24317;-47
2022/09/22 10:44:57;;;;;;;3.70;1.50;;;23.30;68.20;;;;;;215257;1296;22784;-49
2022/09/22 10:50:38;;;;;;;5.50;1.70;;;23.30;68.10;;;;;;214472;1296;24344;-49
2022/09/22 10:56:07;;;;;;;5.50;1.90;;;23.30;68.20;;;;;;214794;1300;24011;-52
2022/09/22 11:01:33;;;;;;;6.20;1.80;;;23.30;68.50;;;;;;215022;1299;22618;-50
2022/09/22 11:12:45;;;;;;;5.40;1.90;;;23.40;67.90;;;;;;214579;1296;24357;-52
2022/09/22 11:18:00;;;;;;;3.20;1.90;;;23.40;67.50;;;;;;214568;1299;24333;-51
2022/09/22 11:23:03;;;;;;;5.30;1.70;;;23.40;67.40;;;;;;214738;1299;22580;-50
2022/09/22 11:28:42;;;;;;;4.70;1.60;;;23.50;67.60;;;;;;214723;1299;25362;-51
2022/09/22 11:34:28;;;;;;;6.70;1.90;;;23.40;67.90;;;;;;214790;1299;24294;-53
2022/09/22 11:39:45;;;;;;;4.40;1.60;;;23.40;67.80;;;;;;214777;1296;24469;-51
2022/09/22 11:45:02;;;;;;;3.70;1.60;;;23.40;67.80;;;;;;214887;1296;22563;-52
2022/09/22 11:50:42;;;;;;;3.70;1.60;;;23.40;68.00;;;;;;214926;1299;24307;-52
2022/09/22 11:56:11;;;;;;;7.30;2.30;;;23.50;67.90;;;;;;214749;1297;25224;-47
2022/09/22 12:01:22;;;;;;;7.00;1.80;;;23.50;68.00;;;;;;214961;1299;24309;-50
2022/09/22 12:06:31;;;;;;;4.90;1.40;;;23.60;67.70;;;;;;214967;1297;22552;-47
2022/09/22 12:11:36;;;;;;;2.90;1.60;;;23.60;67.80;;;;;;214927;1299;22674;-53
2022/09/22 12:16:52;;;;;;;4.20;1.60;;;23.60;67.70;;;;;;214860;1299;24269;-54
2022/09/22 12:22:32;;;;;;;4.30;1.60;;;23.60;67.00;;;;;;214926;1299;24244;-52
2022/09/22 12:27:35;;;;;;;4.50;1.60;;;23.70;67.40;;;;;;214737;1300;22587;-50
2022/09/22 12:32:42;;;;;;;4.40;1.40;;;23.70;67.40;;;;;;214624;1300;25280;-51
2022/09/22 12:37:46;;;;;;;4.30;1.70;;;23.70;67.40;;;;;;215050;1299;25293;-52
2022/09/22 12:42:58;;;;;;;7.00;1.40;;;23.70;67.40;;;;;;214954;1296;25533;-51
2022/09/22 12:48:09;;;;;;;6.00;1.50;;;23.70;67.30;;;;;;214780;1299;23246;-52
2022/09/22 12:53:26;;;;;;;4.30;1.50;;;23.70;67.10;;;;;;214921;1297;22576;-53
2022/09/22 12:58:29;;;;;;;10.00;1.70;;;23.70;67.20;;;;;;214759;1297;22572;-51
2022/09/22 13:03:36;;;;;;;3.10;1.60;;;23.70;67.20;;;;;;215000;1297;24244;-53
2022/09/22 13:08:39;;;;;;;2.10;1.20;;;23.70;67.10;;;;;;215170;1297;25487;-50
2022/09/22 13:13:45;;;;;;;7.40;1.50;;;23.70;67.00;;;;;;215248;1296;22651;-53
2022/09/22 13:18:52;;;;;;;3.80;1.50;;;23.70;67.10;;;;;;214957;1299;218825;-51
2022/09/22 13:24:01;;;;;;;4.10;1.70;;;23.70;67.00;;;;;;215021;1299;22572;-53
2022/09/22 13:29:18;;;;;;;3.90;1.60;;;23.80;67.00;;;;;;215035;1301;24360;-49
2022/09/22 13:34:24;;;;;;;2.20;1.50;;;23.70;66.90;;;;;;215303;1297;23730;-52
2022/09/22 13:39:48;;;;;;;3.30;1.20;;;23.70;67.10;;;;;;214836;1297;25158;-50
2022/09/22 13:45:00;;;;;;;4.00;1.40;;;23.80;67.00;;;;;;214948;1297;22554;-52
2022/09/22 13:50:12;;;;;;;8.50;1.80;;;23.80;66.70;;;;;;215158;1299;22667;-50
2022/09/22 13:55:26;;;;;;;3.90;1.40;;;23.80;65.40;;;;;;214912;1296;22663;-50
2022/09/22 14:00:33;;;;;;;3.10;1.50;;;23.70;65.50;;;;;;214989;1296;25324;-52
2022/09/22 14:06:00;;;;;;;5.50;1.30;;;23.70;66.10;;;;;;215035;1297;24256;-51
2022/09/22 14:11:16;;;;;;;2.70;1.10;;;23.70;67.20;;;;;;214888;1297;25204;-55
2022/09/22 14:16:55;;;;;;;3.70;1.20;;;23.80;68.90;;;;;;214560;1300;22821;-54
2022/09/22 14:22:16;;;;;;;2.80;1.30;;;23.80;69.00;;;;;;214945;1300;22576;-49
2022/09/22 14:27:48;;;;;;;4.20;1.40;;;23.90;73.10;;;;;;214924;1297;22605;-51
2022/09/22 14:33:00;;;;;;;2.90;1.50;;;23.80;69.50;;;;;;215281;1299;25283;-50
2022/09/22 14:38:21;;;;;;;2.80;1.30;;;23.80;69.50;;;;;;215233;1300;24497;-53
2022/09/22 14:43:36;;;;;;;2.70;1.30;;;23.80;69.00;;;;;;214856;1299;22577;-53
2022/09/22 14:48:43;;;;;;;2.50;1.30;;;23.80;68.70;;;;;;215196;1300;25614;-52
2022/09/22 14:54:04;;;;;;;6.90;1.20;;;23.70;68.40;;;;;;215354;1297;22585;-54
2022/09/22 15:04:50;;;;;;;3.30;1.40;;;23.70;66.50;;;;;;215029;1297;22886;-51
2022/09/22 15:10:30;;;;;;;3.70;1.30;;;23.70;65.80;;;;;;215089;1299;22721;-51
2022/09/22 15:15:45;;;;;;;3.10;1.20;;;23.70;66.10;;;;;;215101;1297;23980;-49
2022/09/22 15:21:12;;;;;;;5.00;1.50;;;23.60;66.20;;;;;;214992;1299;22650;-54
2022/09/22 15:26:23;;;;;;;4.60;1.50;;;23.50;65.60;;;;;;214901;1297;25294;-53
2022/09/22 15:31:32;;;;;;;2.90;1.20;;;23.50;64.60;;;;;;215378;1296;23118;-53
2022/09/22 15:36:50;;;;;;;2.50;1.10;;;23.50;64.90;;;;;;214887;1299;22785;-49
2022/09/22 15:42:04;;;;;;;4.10;1.20;;;23.50;64.70;;;;;;215126;1296;24565;-50
2022/09/22 15:47:17;;;;;;;7.30;1.80;;;23.40;64.40;;;;;;215070;1299;25481;-51
2022/09/22 15:52:21;;;;;;;2.00;1.30;;;23.30;63.60;;;;;;215085;1297;22817;-50
2022/09/22 15:57:30;;;;;;;2.40;0.90;;;23.30;63.60;;;;;;214934;1297;22637;-53
2022/09/22 16:02:46;;;;;;;3.10;1.20;;;23.20;63.70;;;;;;214888;1297;22671;-49
2022/09/22 16:08:12;;;;;;;4.70;1.90;;;23.20;62.70;;;;;;215092;1299;27579;-49
2022/09/22 16:13:52;;;;;;;5.80;1.50;;;23.20;62.10;;;;;;214749;1299;24395;-53
2022/09/22 16:19:59;;;;;;;3.50;1.00;;;23.20;62.50;;;;;;214933;1299;24377;-50
2022/09/22 16:25:49;;;;;;;2.80;1.10;;;23.10;60.70;;;;;;215016;1296;22935;-51
2022/09/22 16:31:14;;;;;;;5.20;1.30;;;23.10;60.70;;;;;;215005;1297;25305;-49
2022/09/22 16:36:44;;;;;;;2.70;1.00;;;23.00;61.20;;;;;;215441;1298;23234;-52
2022/09/22 16:42:02;;;;;;;2.10;1.10;;;23.00;61.00;;;;;;215298;1297;25426;-50
2022/09/22 16:47:54;;;;;;;2.70;1.10;;;23.00;60.20;;;;;;215068;1297;22867;-49
2022/09/22 16:53:12;;;;;;;5.20;1.40;;;22.90;60.60;;;;;;214695;1297;22615;-47
2022/09/22 16:58:27;;;;;;;2.40;1.30;;;22.90;60.20;;;;;;214898;1296;24437;-51
2022/09/22 17:03:31;;;;;;;6.30;1.40;;;22.90;61.00;;;;;;214867;1297;23281;-50
2022/09/22 17:08:42;;;;;;;3.60;1.50;;;22.90;62.70;;;;;;215161;1296;22614;-53
2022/09/22 17:13:48;;;;;;;4.80;1.40;;;23.00;63.40;;;;;;214710;1297;25251;-52
2022/09/22 17:18:54;;;;;;;6.60;1.60;;;23.00;63.60;;;;;;214914;1296;22663;-51
2022/09/22 17:23:59;;;;;;;4.30;1.30;;;23.00;64.30;;;;;;215108;1299;22761;-50
2022/09/22 17:29:07;;;;;;;5.90;1.50;;;23.00;64.50;;;;;;215292;1297;24680;-50
2022/09/22 17:34:11;;;;;;;6.20;1.40;;;23.00;64.60;;;;;;214803;1297;23096;-51
2022/09/22 17:39:22;;;;;;;4.00;1.40;;;22.90;64.70;;;;;;214964;1300;24254;-52
2022/09/22 17:44:27;;;;;;;5.20;1.50;;;22.90;64.80;;;;;;215025;1296;25506;-50
2022/09/22 17:55:10;;;;;;;9.20;1.50;;;22.90;65.20;;;;;;215045;1296;25391;-49
2022/09/22 18:00:20;;;;;;;5.30;1.70;;;22.90;65.10;;;;;;215169;1299;24433;-48
2022/09/22 18:05:25;;;;;;;5.80;1.50;;;22.80;65.20;;;;;;214865;1296;24453;-50
2022/09/22 18:10:33;;;;;;;8.40;1.40;;;22.80;65.30;;;;;;215087;1296;24438;-49
2022/09/22 18:15:38;;;;;;;5.90;1.10;;;22.80;65.40;;;;;;215145;1296;25418;-50
2022/09/22 18:20:41;;;;;;;4.10;1.30;;;22.80;65.40;;;;;;215036;1297;22611;-49
2022/09/22 18:25:46;;;;;;;9.50;1.70;;;22.80;65.30;;;;;;215140;1296;22670;-51
2022/09/22 18:30:50;;;;;;;10.60;1.80;;;22.80;65.60;;;;;;215246;1296;25344;-53
2022/09/22 18:35:54;;;;;;;7.40;1.90;;;22.80;67.20;;;;;;215118;1297;24315;-48
2022/09/22 18:40:59;;;;;;;12.20;1.60;;;22.80;66.50;;;;;;214937;1296;22557;-48
2022/09/22 18:46:06;;;;;;;8.00;1.70;;;22.70;66.70;;;;;;214708;1297;22754;-50
2022/09/22 18:51:14;;;;;;;11.70;2.30;;;22.70;66.80;;;;;;214884;1296;24227;-49
2022/09/22 18:56:19;;;;;;;14.20;1.80;;;22.70;66.90;;;;;;214903;1296;22630;-49
2022/09/22 19:01:26;;;;;;;9.60;1.80;;;22.70;67.10;;;;;;215144;1296;22664;-53
2022/09/22 19:07:36;;;;;;;10.20;2.40;;;22.70;68.00;;;;;;215215;1299;22566;-52
2022/09/22 19:11:54;;;;;;;7.60;1.90;;;22.70;68.50;;;;;;214991;1296;22801;-49
2022/09/22 19:16:59;;;;;;;7.60;1.90;;;22.60;69.10;;;;;;215181;1296;22592;-49
2022/09/22 19:22:07;;;;;;;9.70;2.30;;;22.60;69.00;;;;;;215087;1297;25443;-47
2022/09/22 19:27:14;;;;;;;11.90;1.90;;;22.60;69.20;;;;;;214962;1299;24350;-50
2022/09/22 19:32:20;;;;;;;14.40;2.10;;;22.60;68.90;;;;;;214936;1298;25530;-49
2022/09/22 19:37:28;;;;;;;4.50;1.80;;;22.60;68.70;;;;;;215101;1300;22591;-51
2022/09/22 19:42:35;;;;;;;8.50;2.10;;;22.60;68.80;;;;;;215063;1299;23106;-49
2022/09/22 19:47:46;;;;;;;9.20;1.60;;;22.50;68.60;;;;;;215091;1299;25558;-54
2022/09/22 19:52:49;;;;;;;10.20;2.30;;;22.60;69.20;;;;;;215217;1297;25390;-53
2022/09/22 19:57:52;;;;;;;9.50;2.30;;;22.60;69.20;;;;;;214793;1299;24781;-50
2022/09/22 20:02:57;;;;;;;11.10;2.10;;;22.50;68.70;;;;;;215332;1296;23855;-49
2022/09/22 20:08:03;;;;;;;8.30;2.20;;;22.50;68.70;;;;;;215101;1297;24486;-51
2022/09/22 20:14:18;;;;;;;12.60;3.00;;;22.50;68.70;;;;;;215257;1296;22647;-47
2022/09/22 20:18:32;;;;;;;15.90;3.00;;;22.40;68.50;;;;;;214880;1297;22599;-47
2022/09/22 20:23:39;;;;;;;8.70;2.70;;;22.40;68.70;;;;;;215036;1297;25296;-52
2022/09/22 20:28:53;;;;;;;6.20;2.40;;;22.40;68.80;;;;;;215036;1296;22567;-47
2022/09/22 20:33:58;;;;;;;6.90;2.00;;;22.40;68.50;;;;;;214932;1297;22602;-48
2022/09/22 20:39:04;;;;;;;9.00;2.80;;;22.30;68.50;;;;;;215020;1296;23944;-49
2022/09/22 20:44:15;;;;;;;6.90;2.50;;;22.30;69.20;;;;;;214688;1296;24110;-48
2022/09/22 20:49:19;;;;;;;11.80;2.30;;;22.20;68.80;;;;;;214923;1296;22603;-48
2022/09/22 20:54:23;;;;;;;9.00;2.40;;;22.20;68.60;;;;;;214952;1296;24252;-49
2022/09/22 20:59:30;;;;;;;4.80;2.10;;;22.20;68.30;;;;;;214804;1296;22565;-50
2022/09/22 21:04:34;;;;;;;8.60;2.90;;;22.20;68.30;;;;;;214974;1296;22570;-48
2022/09/22 21:15:00;;;;;;;5.40;2.00;;;22.10;68.40;;;;;;214990;1296;22691;-51
2022/09/22 21:20:06;;;;;;;4.50;2.20;;;22.00;68.30;;;;;;215195;1296;22614;-50
2022/09/22 21:25:11;;;;;;;7.40;2.20;;;22.10;68.20;;;;;;214976;1297;24251;-51
2022/09/22 21:30:16;;;;;;;10.30;3.40;;;22.00;69.90;;;;;;214947;1296;26662;-52
2022/09/22 21:35:20;;;;;;;11.50;2.90;;;22.00;70.00;;;;;;214972;1297;23012;-47
2022/09/22 21:40:24;;;;;;;5.00;2.90;;;22.10;69.60;;;;;;215011;1296;22634;-48
2022/09/22 21:45:27;;;;;;;4.60;2.70;;;22.00;69.80;;;;;;215018;1296;22570;-51
2022/09/22 21:50:31;;;;;;;6.10;2.80;;;22.10;70.00;;;;;;215165;1296;24308;-47
2022/09/22 21:55:35;;;;;;;6.60;2.80;;;22.00;69.90;;;;;;215012;1296;23899;-48
2022/09/22 22:00:39;;;;;;;5.70;3.20;;;22.00;69.80;;;;;;215010;1296;22563;-48
2022/09/22 22:06:18;;;;;;;6.30;2.80;;;22.00;69.70;;;;;;215080;1296;22613;-50
2022/09/22 22:11:25;;;;;;;5.60;2.70;;;22.00;69.70;;;;;;214902;1296;25283;-50
2022/09/22 22:16:36;;;;;;;5.50;2.80;;;22.00;69.60;;;;;;215123;1296;25592;-49
2022/09/22 22:21:41;;;;;;;5.80;3.00;;;21.90;69.50;;;;;;215031;1296;22612;-49
2022/09/22 22:26:50;;;;;;;4.60;2.60;;;21.90;69.60;;;;;;215047;1296;25496;-48
2022/09/22 22:31:54;;;;;;;6.60;2.60;;;21.90;69.50;;;;;;214902;1296;26298;-46
2022/09/22 22:36:57;;;;;;;5.90;2.80;;;21.90;69.80;;;;;;215029;1296;23111;-49
2022/09/22 22:42:01;;;;;;;5.60;2.70;;;21.80;69.40;;;;;;215111;1297;22682;-49
2022/09/22 22:47:05;;;;;;;5.50;2.30;;;21.80;69.40;;;;;;215030;1299;22569;-47
2022/09/22 22:52:10;;;;;;;4.60;2.40;;;21.90;69.50;;;;;;215158;1296;22635;-46
2022/09/22 22:57:14;;;;;;;4.80;2.40;;;21.80;69.60;;;;;;214894;1300;22626;-48
2022/09/22 23:02:17;;;;;;;6.40;2.80;;;21.80;69.70;;;;;;214764;1299;24717;-48
2022/09/22 23:07:23;;;;;;;5.40;2.40;;;21.80;69.70;;;;;;215205;1297;22736;-48
2022/09/22 23:12:30;;;;;;;6.10;2.60;;;21.70;69.60;;;;;;214868;1299;25500;-48
2022/09/22 23:17:35;;;;;;;4.10;2.60;;;21.70;70.20;;;;;;214750;1299;22595;-49
2022/09/22 23:22:39;;;;;;;4.80;2.70;;;21.70;69.60;;;;;;215001;1297;22769;-48
2022/09/22 23:27:49;;;;;;;5.90;3.10;;;21.70;69.80;;;;;;214753;1297;22619;-48
2022/09/22 23:32:52;;;;;;;4.50;2.70;;;21.70;69.60;;;;;;214901;1297;25296;-47
2022/09/22 23:37:56;;;;;;;5.70;2.60;;;21.70;69.60;;;;;;215004;1297;24348;-48
2022/09/22 23:43:00;;;;;;;4.80;2.50;;;21.60;69.50;;;;;;215063;1299;24384;-48
2022/09/22 23:48:04;;;;;;;5.60;3.10;;;21.60;69.70;;;;;;215250;1297;25271;-48
2022/09/22 23:53:08;;;;;;;7.60;2.90;;;21.60;69.60;;;;;;214978;1299;24329;-49
2022/09/22 23:58:16;;;;;;;4.50;2.70;;;21.60;69.50;;;;;;215068;1297;22612;-50
